Morning Sun, Ohio
Current Conditions -  °F | °C
As of 8:35 PM on Monday 24 Nov 2014 (Local Time) from KMWO Reporting Station
Broken Clouds Broken Clouds  
Wind Chill: 34°   Ceiling: 6000
Heat Index: 42°   Visibility: 10mi
Dew Point: 28°   Wind: 16mph
Humidity: 59%   Direction: 250°WSW
Pressure: 29.88"   Gusts: 21mph
Location:  39.6252°N, 84.6611°W
Report Text: KMWO 250135Z AUTO 25014G18KT 10SM BKN060 06/M02 A2988 RMK AO2 T00551020
Loading
Personal Weather Stations






























Interactive Weather Map New forecast layout! Learn more

10-Day Weather Forecast

Advertisements
Track Severe Weather on mobile